sensor_id;sensor_type;location;lat;lon;timestamp;P1;durP1;ratioP1;P2;durP2;ratioP2
16994;SDS011;8614;48.522;9.206;2023-12-22T00:01:53;12.80;;;12.00;;
16994;SDS011;8614;48.522;9.206;2023-12-22T00:04:21;12.50;;;11.80;;
16994;SDS011;8614;48.522;9.206;2023-12-22T00:06:48;12.67;;;11.97;;
16994;SDS011;8614;48.522;9.206;2023-12-22T00:09:17;12.00;;;11.30;;
16994;SDS011;8614;48.522;9.206;2023-12-22T00:11:44;13.37;;;12.47;;
16994;SDS011;8614;48.522;9.206;2023-12-22T00:14:11;14.27;;;13.27;;
16994;SDS011;8614;48.522;9.206;2023-12-22T00:16:37;13.80;;;13.00;;
16994;SDS011;8614;48.522;9.206;2023-12-22T00:19:04;13.70;;;12.60;;
16994;SDS011;8614;48.522;9.206;2023-12-22T00:21:32;13.67;;;12.70;;
16994;SDS011;8614;48.522;9.206;2023-12-22T00:23:59;13.87;;;12.87;;
16994;SDS011;8614;48.522;9.206;2023-12-22T00:26:26;13.43;;;12.53;;
16994;SDS011;8614;48.522;9.206;2023-12-22T00:28:53;13.60;;;12.73;;
16994;SDS011;8614;48.522;9.206;2023-12-22T00:31:19;13.90;;;12.73;;
16994;SDS011;8614;48.522;9.206;2023-12-22T00:33:46;14.33;;;12.90;;
16994;SDS011;8614;48.522;9.206;2023-12-22T00:36:13;13.33;;;12.33;;
16994;SDS011;8614;48.522;9.206;2023-12-22T00:38:41;13.80;;;12.63;;
16994;SDS011;8614;48.522;9.206;2023-12-22T00:41:08;13.13;;;12.33;;
16994;SDS011;8614;48.522;9.206;2023-12-22T00:43:36;13.80;;;12.80;;
16994;SDS011;8614;48.522;9.206;2023-12-22T00:46:03;14.37;;;13.20;;
16994;SDS011;8614;48.522;9.206;2023-12-22T00:48:29;14.37;;;13.20;;
16994;SDS011;8614;48.522;9.206;2023-12-22T00:50:56;14.17;;;13.17;;
16994;SDS011;8614;48.522;9.206;2023-12-22T00:53:23;14.80;;;13.80;;
16994;SDS011;8614;48.522;9.206;2023-12-22T00:55:51;13.90;;;12.97;;
16994;SDS011;8614;48.522;9.206;2023-12-22T00:58:18;14.50;;;13.60;;
16994;SDS011;8614;48.522;9.206;2023-12-22T01:00:44;14.27;;;13.13;;
16994;SDS011;8614;48.522;9.206;2023-12-22T01:03:11;14.33;;;13.40;;
16994;SDS011;8614;48.522;9.206;2023-12-22T01:05:38;14.07;;;13.17;;
16994;SDS011;8614;48.522;9.206;2023-12-22T01:08:05;14.70;;;13.70;;
16994;SDS011;8614;48.522;9.206;2023-12-22T01:10:32;14.53;;;13.60;;
16994;SDS011;8614;48.522;9.206;2023-12-22T01:13:00;15.07;;;13.73;;
16994;SDS011;8614;48.522;9.206;2023-12-22T01:15:27;14.90;;;13.50;;
16994;SDS011;8614;48.522;9.206;2023-12-22T01:17:54;13.90;;;13.00;;
16994;SDS011;8614;48.522;9.206;2023-12-22T01:20:21;14.30;;;13.13;;
16994;SDS011;8614;48.522;9.206;2023-12-22T01:22:47;14.20;;;13.30;;
16994;SDS011;8614;48.522;9.206;2023-12-22T01:25:14;14.70;;;13.67;;
16994;SDS011;8614;48.522;9.206;2023-12-22T01:27:41;13.33;;;12.33;;
16994;SDS011;8614;48.522;9.206;2023-12-22T01:30:09;13.20;;;12.17;;
16994;SDS011;8614;48.522;9.206;2023-12-22T01:32:36;13.30;;;12.40;;
16994;SDS011;8614;48.522;9.206;2023-12-22T01:35:03;13.40;;;12.30;;
16994;SDS011;8614;48.522;9.206;2023-12-22T01:37:34;13.43;;;12.23;;
16994;SDS011;8614;48.522;9.206;2023-12-22T01:40:01;12.80;;;12.00;;
16994;SDS011;8614;48.522;9.206;2023-12-22T01:42:28;12.60;;;11.90;;
16994;SDS011;8614;48.522;9.206;2023-12-22T01:44:55;12.47;;;11.87;;
16994;SDS011;8614;48.522;9.206;2023-12-22T01:47:23;12.87;;;12.17;;
16994;SDS011;8614;48.522;9.206;2023-12-22T01:49:50;13.80;;;13.10;;
16994;SDS011;8614;48.522;9.206;2023-12-22T01:52:18;13.53;;;12.73;;
16994;SDS011;8614;48.522;9.206;2023-12-22T01:54:45;13.80;;;13.00;;
16994;SDS011;8614;48.522;9.206;2023-12-22T01:57:12;13.70;;;12.90;;
16994;SDS011;8614;48.522;9.206;2023-12-22T01:59:42;13.50;;;12.80;;
16994;SDS011;8614;48.522;9.206;2023-12-22T02:02:10;13.80;;;13.10;;
16994;SDS011;8614;48.522;9.206;2023-12-22T02:04:38;13.27;;;12.47;;
16994;SDS011;8614;48.522;9.206;2023-12-22T02:07:06;13.20;;;12.50;;
16994;SDS011;8614;48.522;9.206;2023-12-22T02:09:35;13.23;;;12.53;;
16994;SDS011;8614;48.522;9.206;2023-12-22T02:12:02;13.60;;;12.77;;
16994;SDS011;8614;48.522;9.206;2023-12-22T02:14:30;14.20;;;13.40;;
16994;SDS011;8614;48.522;9.206;2023-12-22T02:16:59;13.80;;;13.07;;
16994;SDS011;8614;48.522;9.206;2023-12-22T02:19:40;13.70;;;12.80;;
16994;SDS011;8614;48.522;9.206;2023-12-22T02:22:09;13.70;;;12.90;;
16994;SDS011;8614;48.522;9.206;2023-12-22T02:24:38;13.63;;;12.93;;
16994;SDS011;8614;48.522;9.206;2023-12-22T02:27:06;14.10;;;13.40;;
16994;SDS011;8614;48.522;9.206;2023-12-22T02:29:41;14.00;;;13.20;;
16994;SDS011;8614;48.522;9.206;2023-12-22T02:32:13;14.10;;;13.20;;
16994;SDS011;8614;48.522;9.206;2023-12-22T02:34:47;13.87;;;13.00;;
16994;SDS011;8614;48.522;9.206;2023-12-22T02:37:18;13.90;;;12.80;;
16994;SDS011;8614;48.522;9.206;2023-12-22T02:39:49;13.90;;;12.90;;
16994;SDS011;8614;48.522;9.206;2023-12-22T02:42:16;13.90;;;12.97;;
16994;SDS011;8614;48.522;9.206;2023-12-22T02:44:45;13.90;;;12.97;;
16994;SDS011;8614;48.522;9.206;2023-12-22T02:47:11;13.80;;;12.90;;
16994;SDS011;8614;48.522;9.206;2023-12-22T02:49:38;13.63;;;12.83;;
16994;SDS011;8614;48.522;9.206;2023-12-22T02:52:05;13.70;;;12.80;;
16994;SDS011;8614;48.522;9.206;2023-12-22T02:54:32;14.50;;;13.43;;
16994;SDS011;8614;48.522;9.206;2023-12-22T02:57:00;14.10;;;13.10;;
16994;SDS011;8614;48.522;9.206;2023-12-22T02:59:27;14.47;;;13.47;;
16994;SDS011;8614;48.522;9.206;2023-12-22T03:01:54;14.60;;;13.40;;
16994;SDS011;8614;48.522;9.206;2023-12-22T03:04:21;13.77;;;12.97;;
16994;SDS011;8614;48.522;9.206;2023-12-22T03:06:48;14.60;;;13.50;;
16994;SDS011;8614;48.522;9.206;2023-12-22T03:09:14;13.70;;;12.90;;
16994;SDS011;8614;48.522;9.206;2023-12-22T03:11:41;14.17;;;13.27;;
16994;SDS011;8614;48.522;9.206;2023-12-22T03:14:09;14.43;;;13.27;;
16994;SDS011;8614;48.522;9.206;2023-12-22T03:16:36;14.27;;;13.20;;
16994;SDS011;8614;48.522;9.206;2023-12-22T03:19:03;14.50;;;13.40;;
16994;SDS011;8614;48.522;9.206;2023-12-22T03:21:30;13.43;;;12.57;;
16994;SDS011;8614;48.522;9.206;2023-12-22T03:23:57;13.20;;;12.30;;
16994;SDS011;8614;48.522;9.206;2023-12-22T03:26:26;13.27;;;12.37;;
16994;SDS011;8614;48.522;9.206;2023-12-22T03:28:53;13.07;;;12.33;;
16994;SDS011;8614;48.522;9.206;2023-12-22T03:31:21;13.03;;;12.27;;
16994;SDS011;8614;48.522;9.206;2023-12-22T03:33:48;12.87;;;12.17;;
16994;SDS011;8614;48.522;9.206;2023-12-22T03:36:15;13.10;;;12.30;;
16994;SDS011;8614;48.522;9.206;2023-12-22T03:38:42;12.90;;;12.10;;
16994;SDS011;8614;48.522;9.206;2023-12-22T03:41:08;12.90;;;12.00;;
16994;SDS011;8614;48.522;9.206;2023-12-22T03:43:36;13.20;;;12.30;;
16994;SDS011;8614;48.522;9.206;2023-12-22T03:46:03;13.07;;;12.27;;
16994;SDS011;8614;48.522;9.206;2023-12-22T03:48:31;12.93;;;12.13;;
16994;SDS011;8614;48.522;9.206;2023-12-22T03:50:58;13.60;;;12.50;;
16994;SDS011;8614;48.522;9.206;2023-12-22T03:53:24;13.20;;;12.40;;
16994;SDS011;8614;48.522;9.206;2023-12-22T03:55:51;13.40;;;12.40;;
16994;SDS011;8614;48.522;9.206;2023-12-22T03:58:18;12.90;;;12.03;;
16994;SDS011;8614;48.522;9.206;2023-12-22T04:00:45;13.43;;;12.63;;
16994;SDS011;8614;48.522;9.206;2023-12-22T04:03:12;12.80;;;12.10;;
16994;SDS011;8614;48.522;9.206;2023-12-22T04:05:40;12.67;;;11.93;;
16994;SDS011;8614;48.522;9.206;2023-12-22T04:08:07;13.40;;;12.50;;
16994;SDS011;8614;48.522;9.206;2023-12-22T04:10:34;12.50;;;11.80;;
16994;SDS011;8614;48.522;9.206;2023-12-22T04:13:00;12.80;;;12.00;;
16994;SDS011;8614;48.522;9.206;2023-12-22T04:15:27;13.30;;;12.40;;
16994;SDS011;8614;48.522;9.206;2023-12-22T04:17:54;13.17;;;12.37;;
16994;SDS011;8614;48.522;9.206;2023-12-22T04:20:21;13.33;;;12.57;;
16994;SDS011;8614;48.522;9.206;2023-12-22T04:22:50;12.90;;;12.20;;
16994;SDS011;8614;48.522;9.206;2023-12-22T04:25:17;13.40;;;12.50;;
16994;SDS011;8614;48.522;9.206;2023-12-22T04:27:44;13.60;;;12.63;;
16994;SDS011;8614;48.522;9.206;2023-12-22T04:30:11;14.07;;;12.93;;
16994;SDS011;8614;48.522;9.206;2023-12-22T04:32:38;13.67;;;12.70;;
16994;SDS011;8614;48.522;9.206;2023-12-22T04:35:05;13.37;;;12.37;;
16994;SDS011;8614;48.522;9.206;2023-12-22T04:37:32;13.03;;;12.03;;
16994;SDS011;8614;48.522;9.206;2023-12-22T04:40:00;12.93;;;12.13;;
16994;SDS011;8614;48.522;9.206;2023-12-22T04:42:28;13.60;;;12.60;;
16994;SDS011;8614;48.522;9.206;2023-12-22T04:44:55;13.60;;;12.50;;
16994;SDS011;8614;48.522;9.206;2023-12-22T04:47:21;13.20;;;12.30;;
16994;SDS011;8614;48.522;9.206;2023-12-22T04:49:48;13.47;;;12.47;;
16994;SDS011;8614;48.522;9.206;2023-12-22T04:52:15;13.90;;;12.80;;
16994;SDS011;8614;48.522;9.206;2023-12-22T04:54:42;13.30;;;12.50;;
16994;SDS011;8614;48.522;9.206;2023-12-22T04:57:10;13.40;;;12.50;;
16994;SDS011;8614;48.522;9.206;2023-12-22T04:59:37;13.53;;;12.50;;
16994;SDS011;8614;48.522;9.206;2023-12-22T05:02:04;14.77;;;13.13;;
16994;SDS011;8614;48.522;9.206;2023-12-22T05:04:31;14.47;;;13.20;;
16994;SDS011;8614;48.522;9.206;2023-12-22T05:06:58;14.93;;;13.70;;
16994;SDS011;8614;48.522;9.206;2023-12-22T05:09:26;14.10;;;13.00;;
16994;SDS011;8614;48.522;9.206;2023-12-22T05:11:53;14.90;;;13.87;;
16994;SDS011;8614;48.522;9.206;2023-12-22T05:14:22;14.50;;;13.50;;
16994;SDS011;8614;48.522;9.206;2023-12-22T05:16:49;14.37;;;13.30;;
16994;SDS011;8614;48.522;9.206;2023-12-22T05:19:20;14.53;;;13.43;;
16994;SDS011;8614;48.522;9.206;2023-12-22T05:21:47;15.23;;;13.83;;
16994;SDS011;8614;48.522;9.206;2023-12-22T05:24:14;14.80;;;13.63;;
16994;SDS011;8614;48.522;9.206;2023-12-22T05:26:41;14.63;;;13.30;;
16994;SDS011;8614;48.522;9.206;2023-12-22T05:29:08;14.00;;;12.90;;
16994;SDS011;8614;48.522;9.206;2023-12-22T05:31:39;15.07;;;13.77;;
16994;SDS011;8614;48.522;9.206;2023-12-22T05:34:06;15.27;;;13.90;;
16994;SDS011;8614;48.522;9.206;2023-12-22T05:36:37;15.27;;;13.70;;
16994;SDS011;8614;48.522;9.206;2023-12-22T05:39:10;15.00;;;14.00;;
16994;SDS011;8614;48.522;9.206;2023-12-22T05:41:37;14.83;;;13.50;;
16994;SDS011;8614;48.522;9.206;2023-12-22T05:44:03;14.60;;;13.60;;
16994;SDS011;8614;48.522;9.206;2023-12-22T05:46:31;15.20;;;13.80;;
16994;SDS011;8614;48.522;9.206;2023-12-22T05:49:02;15.93;;;13.30;;
16994;SDS011;8614;48.522;9.206;2023-12-22T05:51:35;14.50;;;13.23;;
16994;SDS011;8614;48.522;9.206;2023-12-22T05:54:06;15.70;;;14.10;;
16994;SDS011;8614;48.522;9.206;2023-12-22T05:56:35;15.13;;;14.10;;
16994;SDS011;8614;48.522;9.206;2023-12-22T05:59:02;15.37;;;13.80;;
16994;SDS011;8614;48.522;9.206;2023-12-22T06:01:29;14.77;;;13.63;;
16994;SDS011;8614;48.522;9.206;2023-12-22T06:03:56;15.93;;;14.37;;
16994;SDS011;8614;48.522;9.206;2023-12-22T06:06:24;14.47;;;13.27;;
16994;SDS011;8614;48.522;9.206;2023-12-22T06:08:52;15.03;;;13.73;;
16994;SDS011;8614;48.522;9.206;2023-12-22T06:11:19;15.17;;;13.77;;
16994;SDS011;8614;48.522;9.206;2023-12-22T06:13:48;15.63;;;13.93;;
16994;SDS011;8614;48.522;9.206;2023-12-22T06:16:15;16.53;;;14.90;;
16994;SDS011;8614;48.522;9.206;2023-12-22T06:18:43;14.57;;;13.57;;
16994;SDS011;8614;48.522;9.206;2023-12-22T06:21:10;15.60;;;14.20;;
16994;SDS011;8614;48.522;9.206;2023-12-22T06:23:50;13.33;;;12.20;;
16994;SDS011;8614;48.522;9.206;2023-12-22T06:26:24;14.60;;;13.30;;
16994;SDS011;8614;48.522;9.206;2023-12-22T06:28:51;14.07;;;12.73;;
16994;SDS011;8614;48.522;9.206;2023-12-22T06:31:18;13.97;;;12.77;;
16994;SDS011;8614;48.522;9.206;2023-12-22T06:33:46;13.50;;;12.37;;
16994;SDS011;8614;48.522;9.206;2023-12-22T06:36:19;13.60;;;12.50;;
16994;SDS011;8614;48.522;9.206;2023-12-22T06:38:46;14.03;;;12.73;;
16994;SDS011;8614;48.522;9.206;2023-12-22T06:41:19;13.80;;;12.70;;
16994;SDS011;8614;48.522;9.206;2023-12-22T06:43:46;14.00;;;12.83;;
16994;SDS011;8614;48.522;9.206;2023-12-22T06:46:16;14.60;;;13.57;;
16994;SDS011;8614;48.522;9.206;2023-12-22T06:48:43;15.27;;;13.90;;
16994;SDS011;8614;48.522;9.206;2023-12-22T06:51:16;15.83;;;14.50;;
16994;SDS011;8614;48.522;9.206;2023-12-22T06:53:44;15.70;;;14.30;;
16994;SDS011;8614;48.522;9.206;2023-12-22T06:56:16;15.43;;;13.90;;
16994;SDS011;8614;48.522;9.206;2023-12-22T06:58:44;16.43;;;14.80;;
16994;SDS011;8614;48.522;9.206;2023-12-22T07:01:12;15.27;;;14.23;;
16994;SDS011;8614;48.522;9.206;2023-12-22T07:03:43;15.60;;;14.03;;
16994;SDS011;8614;48.522;9.206;2023-12-22T07:06:10;15.43;;;14.10;;
16994;SDS011;8614;48.522;9.206;2023-12-22T07:08:37;15.37;;;14.07;;
16994;SDS011;8614;48.522;9.206;2023-12-22T07:11:04;15.23;;;13.97;;
16994;SDS011;8614;48.522;9.206;2023-12-22T07:13:32;14.93;;;13.93;;
16994;SDS011;8614;48.522;9.206;2023-12-22T07:15:59;16.27;;;14.77;;
16994;SDS011;8614;48.522;9.206;2023-12-22T07:18:27;15.23;;;14.20;;
16994;SDS011;8614;48.522;9.206;2023-12-22T07:20:55;15.30;;;14.20;;
16994;SDS011;8614;48.522;9.206;2023-12-22T07:23:22;16.03;;;14.57;;
16994;SDS011;8614;48.522;9.206;2023-12-22T07:25:49;15.97;;;14.63;;
16994;SDS011;8614;48.522;9.206;2023-12-22T07:28:16;15.23;;;14.07;;
16994;SDS011;8614;48.522;9.206;2023-12-22T07:30:44;15.40;;;14.07;;
16994;SDS011;8614;48.522;9.206;2023-12-22T07:33:11;15.53;;;14.20;;
16994;SDS011;8614;48.522;9.206;2023-12-22T07:35:38;15.43;;;14.10;;
16994;SDS011;8614;48.522;9.206;2023-12-22T07:38:04;15.30;;;13.70;;
16994;SDS011;8614;48.522;9.206;2023-12-22T07:40:31;15.63;;;14.47;;
16994;SDS011;8614;48.522;9.206;2023-12-22T07:42:58;15.53;;;14.33;;
16994;SDS011;8614;48.522;9.206;2023-12-22T07:45:25;14.90;;;13.80;;
16994;SDS011;8614;48.522;9.206;2023-12-22T07:47:55;14.90;;;13.70;;
16994;SDS011;8614;48.522;9.206;2023-12-22T07:50:21;14.90;;;13.67;;
16994;SDS011;8614;48.522;9.206;2023-12-22T07:52:48;14.63;;;13.43;;
16994;SDS011;8614;48.522;9.206;2023-12-22T07:55:15;14.73;;;13.43;;
16994;SDS011;8614;48.522;9.206;2023-12-22T07:57:42;14.53;;;13.23;;
16994;SDS011;8614;48.522;9.206;2023-12-22T08:00:10;14.80;;;13.50;;
16994;SDS011;8614;48.522;9.206;2023-12-22T08:02:38;14.10;;;12.77;;
16994;SDS011;8614;48.522;9.206;2023-12-22T08:07:48;13.23;;;12.00;;
16994;SDS011;8614;48.522;9.206;2023-12-22T08:10:15;14.20;;;12.60;;
16994;SDS011;8614;48.522;9.206;2023-12-22T08:12:42;13.63;;;12.50;;
16994;SDS011;8614;48.522;9.206;2023-12-22T08:15:12;13.37;;;12.37;;
16994;SDS011;8614;48.522;9.206;2023-12-22T08:17:45;13.63;;;12.53;;
16994;SDS011;8614;48.522;9.206;2023-12-22T08:20:15;13.57;;;12.40;;
16994;SDS011;8614;48.522;9.206;2023-12-22T08:22:45;14.40;;;13.00;;
16994;SDS011;8614;48.522;9.206;2023-12-22T08:25:18;13.97;;;12.57;;
16994;SDS011;8614;48.522;9.206;2023-12-22T08:27:46;13.90;;;12.70;;
16994;SDS011;8614;48.522;9.206;2023-12-22T08:30:13;13.03;;;12.10;;
16994;SDS011;8614;48.522;9.206;2023-12-22T08:32:40;13.03;;;12.03;;
16994;SDS011;8614;48.522;9.206;2023-12-22T08:35:07;13.13;;;11.93;;
16994;SDS011;8614;48.522;9.206;2023-12-22T08:37:34;13.97;;;12.53;;
16994;SDS011;8614;48.522;9.206;2023-12-22T08:40:04;14.50;;;13.10;;
16994;SDS011;8614;48.522;9.206;2023-12-22T08:42:32;11.17;;;10.07;;
16994;SDS011;8614;48.522;9.206;2023-12-22T08:44:58;11.17;;;10.17;;
16994;SDS011;8614;48.522;9.206;2023-12-22T08:47:25;11.30;;;5.07;;
16994;SDS011;8614;48.522;9.206;2023-12-22T08:49:52;9.33;;;5.97;;
16994;SDS011;8614;48.522;9.206;2023-12-22T08:52:19;15.23;;;14.13;;
16994;SDS011;8614;48.522;9.206;2023-12-22T08:54:46;10.20;;;7.37;;
16994;SDS011;8614;48.522;9.206;2023-12-22T08:57:14;12.23;;;8.23;;
16994;SDS011;8614;48.522;9.206;2023-12-22T08:59:40;9.73;;;7.67;;
16994;SDS011;8614;48.522;9.206;2023-12-22T09:02:07;7.60;;;6.03;;
16994;SDS011;8614;48.522;9.206;2023-12-22T09:04:34;11.53;;;7.70;;
16994;SDS011;8614;48.522;9.206;2023-12-22T09:07:01;11.23;;;4.43;;
16994;SDS011;8614;48.522;9.206;2023-12-22T09:09:27;6.83;;;4.77;;
16994;SDS011;8614;48.522;9.206;2023-12-22T09:11:54;13.70;;;7.63;;
16994;SDS011;8614;48.522;9.206;2023-12-22T09:14:22;10.50;;;9.17;;
16994;SDS011;8614;48.522;9.206;2023-12-22T09:16:49;13.37;;;12.10;;
16994;SDS011;8614;48.522;9.206;2023-12-22T09:19:16;10.63;;;5.73;;
16994;SDS011;8614;48.522;9.206;2023-12-22T09:21:43;8.70;;;4.57;;
16994;SDS011;8614;48.522;9.206;2023-12-22T09:24:09;11.43;;;9.63;;
16994;SDS011;8614;48.522;9.206;2023-12-22T09:26:37;7.77;;;4.00;;
16994;SDS011;8614;48.522;9.206;2023-12-22T09:29:04;12.33;;;8.23;;
16994;SDS011;8614;48.522;9.206;2023-12-22T09:31:32;12.57;;;7.87;;
16994;SDS011;8614;48.522;9.206;2023-12-22T09:33:59;10.83;;;9.83;;
16994;SDS011;8614;48.522;9.206;2023-12-22T09:36:26;17.03;;;12.70;;
16994;SDS011;8614;48.522;9.206;2023-12-22T09:38:53;9.23;;;8.27;;
16994;SDS011;8614;48.522;9.206;2023-12-22T09:41:23;11.70;;;8.93;;
16994;SDS011;8614;48.522;9.206;2023-12-22T09:43:49;11.43;;;8.17;;
16994;SDS011;8614;48.522;9.206;2023-12-22T09:46:18;11.00;;;9.83;;
16994;SDS011;8614;48.522;9.206;2023-12-22T09:48:49;8.47;;;3.93;;
16994;SDS011;8614;48.522;9.206;2023-12-22T09:51:17;9.70;;;6.87;;
16994;SDS011;8614;48.522;9.206;2023-12-22T09:53:45;4.63;;;4.00;;
16994;SDS011;8614;48.522;9.206;2023-12-22T09:56:13;13.60;;;12.40;;
16994;SDS011;8614;48.522;9.206;2023-12-22T09:58:41;14.03;;;12.93;;
16994;SDS011;8614;48.522;9.206;2023-12-22T10:01:08;13.80;;;12.60;;
16994;SDS011;8614;48.522;9.206;2023-12-22T10:03:35;13.53;;;12.40;;
16994;SDS011;8614;48.522;9.206;2023-12-22T10:06:05;13.83;;;12.63;;
16994;SDS011;8614;48.522;9.206;2023-12-22T10:08:32;13.80;;;12.67;;
16994;SDS011;8614;48.522;9.206;2023-12-22T10:10:59;13.40;;;12.13;;
16994;SDS011;8614;48.522;9.206;2023-12-22T10:13:27;14.77;;;12.90;;
16994;SDS011;8614;48.522;9.206;2023-12-22T10:15:54;13.50;;;12.23;;
16994;SDS011;8614;48.522;9.206;2023-12-22T10:18:21;16.23;;;15.00;;
16994;SDS011;8614;48.522;9.206;2023-12-22T10:20:49;18.30;;;16.17;;
16994;SDS011;8614;48.522;9.206;2023-12-22T10:23:17;16.60;;;15.10;;
16994;SDS011;8614;48.522;9.206;2023-12-22T10:25:44;16.67;;;15.27;;
16994;SDS011;8614;48.522;9.206;2023-12-22T10:28:12;15.03;;;13.73;;
16994;SDS011;8614;48.522;9.206;2023-12-22T10:30:40;15.77;;;14.60;;
16994;SDS011;8614;48.522;9.206;2023-12-22T10:33:08;14.90;;;13.50;;
16994;SDS011;8614;48.522;9.206;2023-12-22T10:35:34;16.63;;;15.23;;
16994;SDS011;8614;48.522;9.206;2023-12-22T10:38:01;17.27;;;15.77;;
16994;SDS011;8614;48.522;9.206;2023-12-22T10:40:31;13.57;;;12.53;;
16994;SDS011;8614;48.522;9.206;2023-12-22T10:42:58;14.13;;;12.83;;
16994;SDS011;8614;48.522;9.206;2023-12-22T10:45:26;14.47;;;13.20;;
16994;SDS011;8614;48.522;9.206;2023-12-22T10:47:54;13.67;;;12.57;;
16994;SDS011;8614;48.522;9.206;2023-12-22T10:50:21;15.10;;;13.83;;
16994;SDS011;8614;48.522;9.206;2023-12-22T10:52:49;14.17;;;12.97;;
16994;SDS011;8614;48.522;9.206;2023-12-22T10:55:16;15.87;;;14.07;;
16994;SDS011;8614;48.522;9.206;2023-12-22T10:57:45;15.10;;;13.80;;
16994;SDS011;8614;48.522;9.206;2023-12-22T11:00:13;16.20;;;14.60;;
16994;SDS011;8614;48.522;9.206;2023-12-22T11:02:42;15.57;;;14.27;;
16994;SDS011;8614;48.522;9.206;2023-12-22T11:05:12;16.03;;;14.47;;
16994;SDS011;8614;48.522;9.206;2023-12-22T11:07:44;14.57;;;13.10;;
16994;SDS011;8614;48.522;9.206;2023-12-22T11:10:14;14.20;;;13.00;;
16994;SDS011;8614;48.522;9.206;2023-12-22T11:12:48;13.80;;;12.67;;
16994;SDS011;8614;48.522;9.206;2023-12-22T11:15:16;14.40;;;12.90;;
16994;SDS011;8614;48.522;9.206;2023-12-22T11:17:45;13.50;;;12.30;;
16994;SDS011;8614;48.522;9.206;2023-12-22T11:20:14;14.37;;;13.23;;
16994;SDS011;8614;48.522;9.206;2023-12-22T11:22:42;14.07;;;12.77;;
16994;SDS011;8614;48.522;9.206;2023-12-22T11:25:09;13.23;;;12.27;;
16994;SDS011;8614;48.522;9.206;2023-12-22T11:27:37;14.37;;;13.00;;
16994;SDS011;8614;48.522;9.206;2023-12-22T11:30:06;13.93;;;12.73;;
16994;SDS011;8614;48.522;9.206;2023-12-22T11:32:43;14.87;;;13.33;;
16994;SDS011;8614;48.522;9.206;2023-12-22T11:35:11;14.53;;;13.20;;
16994;SDS011;8614;48.522;9.206;2023-12-22T11:37:39;14.50;;;13.03;;
16994;SDS011;8614;48.522;9.206;2023-12-22T11:40:08;14.80;;;13.30;;
16994;SDS011;8614;48.522;9.206;2023-12-22T11:42:36;13.30;;;12.37;;
16994;SDS011;8614;48.522;9.206;2023-12-22T11:45:10;14.03;;;12.87;;
16994;SDS011;8614;48.522;9.206;2023-12-22T11:47:40;14.37;;;13.23;;
16994;SDS011;8614;48.522;9.206;2023-12-22T11:50:08;14.03;;;12.87;;
16994;SDS011;8614;48.522;9.206;2023-12-22T11:52:35;14.67;;;13.40;;
16994;SDS011;8614;48.522;9.206;2023-12-22T11:55:02;15.70;;;13.10;;
16994;SDS011;8614;48.522;9.206;2023-12-22T11:57:33;14.10;;;12.80;;
16994;SDS011;8614;48.522;9.206;2023-12-22T12:00:06;13.83;;;12.63;;
16994;SDS011;8614;48.522;9.206;2023-12-22T12:02:40;13.77;;;12.87;;
16994;SDS011;8614;48.522;9.206;2023-12-22T12:05:07;13.60;;;12.57;;
16994;SDS011;8614;48.522;9.206;2023-12-22T12:07:39;13.47;;;12.43;;
16994;SDS011;8614;48.522;9.206;2023-12-22T12:10:09;13.50;;;12.40;;
16994;SDS011;8614;48.522;9.206;2023-12-22T12:12:36;13.40;;;12.30;;
16994;SDS011;8614;48.522;9.206;2023-12-22T12:15:08;12.87;;;11.97;;
16994;SDS011;8614;48.522;9.206;2023-12-22T12:17:41;13.50;;;12.43;;
16994;SDS011;8614;48.522;9.206;2023-12-22T12:20:09;13.30;;;12.40;;
16994;SDS011;8614;48.522;9.206;2023-12-22T12:22:37;12.90;;;12.10;;
16994;SDS011;8614;48.522;9.206;2023-12-22T12:25:09;13.90;;;12.80;;
16994;SDS011;8614;48.522;9.206;2023-12-22T12:27:38;13.30;;;12.57;;
16994;SDS011;8614;48.522;9.206;2023-12-22T12:30:12;12.97;;;12.17;;
16994;SDS011;8614;48.522;9.206;2023-12-22T12:32:44;12.97;;;12.27;;
16994;SDS011;8614;48.522;9.206;2023-12-22T12:35:14;13.10;;;12.30;;
16994;SDS011;8614;48.522;9.206;2023-12-22T12:37:44;13.17;;;12.20;;
16994;SDS011;8614;48.522;9.206;2023-12-22T12:40:11;12.73;;;11.93;;
16994;SDS011;8614;48.522;9.206;2023-12-22T12:42:38;13.50;;;12.50;;
16994;SDS011;8614;48.522;9.206;2023-12-22T12:45:05;13.07;;;12.20;;
16994;SDS011;8614;48.522;9.206;2023-12-22T12:47:33;13.00;;;12.20;;
16994;SDS011;8614;48.522;9.206;2023-12-22T12:50:02;13.00;;;12.20;;
16994;SDS011;8614;48.522;9.206;2023-12-22T12:52:29;12.63;;;11.83;;
16994;SDS011;8614;48.522;9.206;2023-12-22T12:54:56;13.30;;;12.40;;
16994;SDS011;8614;48.522;9.206;2023-12-22T12:57:23;13.20;;;12.30;;
16994;SDS011;8614;48.522;9.206;2023-12-22T12:59:51;12.53;;;11.73;;
16994;SDS011;8614;48.522;9.206;2023-12-22T13:02:18;13.20;;;12.40;;
16994;SDS011;8614;48.522;9.206;2023-12-22T13:04:45;13.00;;;12.30;;
16994;SDS011;8614;48.522;9.206;2023-12-22T13:07:14;13.30;;;12.40;;
16994;SDS011;8614;48.522;9.206;2023-12-22T13:09:49;13.47;;;12.67;;
16994;SDS011;8614;48.522;9.206;2023-12-22T13:12:18;12.97;;;12.27;;
16994;SDS011;8614;48.522;9.206;2023-12-22T13:14:45;12.70;;;11.93;;
16994;SDS011;8614;48.522;9.206;2023-12-22T13:17:12;12.67;;;11.83;;
16994;SDS011;8614;48.522;9.206;2023-12-22T13:19:39;12.70;;;12.00;;
16994;SDS011;8614;48.522;9.206;2023-12-22T13:22:06;12.70;;;12.00;;
16994;SDS011;8614;48.522;9.206;2023-12-22T13:24:34;12.90;;;12.10;;
16994;SDS011;8614;48.522;9.206;2023-12-22T13:27:01;12.90;;;12.20;;
16994;SDS011;8614;48.522;9.206;2023-12-22T13:29:34;12.90;;;12.20;;
16994;SDS011;8614;48.522;9.206;2023-12-22T13:32:08;12.80;;;12.10;;
16994;SDS011;8614;48.522;9.206;2023-12-22T13:34:45;13.17;;;12.47;;
16994;SDS011;8614;48.522;9.206;2023-12-22T13:37:13;12.60;;;11.83;;
16994;SDS011;8614;48.522;9.206;2023-12-22T13:39:42;14.27;;;13.27;;
16994;SDS011;8614;48.522;9.206;2023-12-22T13:42:13;13.10;;;12.40;;
16994;SDS011;8614;48.522;9.206;2023-12-22T13:44:42;13.27;;;12.50;;
16994;SDS011;8614;48.522;9.206;2023-12-22T13:47:09;13.67;;;12.97;;
16994;SDS011;8614;48.522;9.206;2023-12-22T13:49:36;12.60;;;12.00;;
16994;SDS011;8614;48.522;9.206;2023-12-22T13:52:03;12.80;;;12.10;;
16994;SDS011;8614;48.522;9.206;2023-12-22T13:54:32;12.70;;;12.00;;
16994;SDS011;8614;48.522;9.206;2023-12-22T13:57:01;12.93;;;12.23;;
16994;SDS011;8614;48.522;9.206;2023-12-22T13:59:31;12.83;;;12.13;;
16994;SDS011;8614;48.522;9.206;2023-12-22T14:01:58;12.77;;;12.07;;
16994;SDS011;8614;48.522;9.206;2023-12-22T14:04:25;13.03;;;12.33;;
16994;SDS011;8614;48.522;9.206;2023-12-22T14:06:52;12.87;;;12.17;;
16994;SDS011;8614;48.522;9.206;2023-12-22T14:09:19;12.97;;;12.27;;
16994;SDS011;8614;48.522;9.206;2023-12-22T14:11:49;13.20;;;12.50;;
16994;SDS011;8614;48.522;9.206;2023-12-22T14:14:17;12.80;;;12.10;;
16994;SDS011;8614;48.522;9.206;2023-12-22T14:16:44;13.10;;;12.40;;
16994;SDS011;8614;48.522;9.206;2023-12-22T14:19:11;12.90;;;12.00;;
16994;SDS011;8614;48.522;9.206;2023-12-22T14:21:38;12.60;;;11.90;;
16994;SDS011;8614;48.522;9.206;2023-12-22T14:24:05;12.70;;;12.00;;
16994;SDS011;8614;48.522;9.206;2023-12-22T14:26:32;12.63;;;11.93;;
16994;SDS011;8614;48.522;9.206;2023-12-22T14:28:59;12.37;;;11.77;;
16994;SDS011;8614;48.522;9.206;2023-12-22T14:31:27;13.00;;;12.20;;
16994;SDS011;8614;48.522;9.206;2023-12-22T14:33:54;12.60;;;11.90;;
16994;SDS011;8614;48.522;9.206;2023-12-22T14:36:23;12.80;;;12.10;;
16994;SDS011;8614;48.522;9.206;2023-12-22T14:38:50;13.00;;;12.20;;
16994;SDS011;8614;48.522;9.206;2023-12-22T14:41:16;13.50;;;12.80;;
16994;SDS011;8614;48.522;9.206;2023-12-22T14:43:43;13.53;;;12.83;;